sensor_id;sensor_type;location;lat;lon;timestamp;pressure;altitude;pressure_sealevel;temperature;humidity
27040;BME280;14589;51.578;7.306;2023-04-10T05:02:10;101552.72;;;4.57;76.21
27040;BME280;14589;51.578;7.306;2023-04-10T05:04:58;101558.31;;;4.52;76.97
27040;BME280;14589;51.578;7.306;2023-04-10T05:07:43;101560.06;;;4.53;76.73
27040;BME280;14589;51.578;7.306;2023-04-10T05:10:24;101562.59;;;4.56;76.73
27040;BME280;14589;51.578;7.306;2023-04-10T05:13:14;101564.47;;;4.54;76.66
27040;BME280;14589;51.578;7.306;2023-04-10T05:15:57;101559.19;;;4.53;76.76
27040;BME280;14589;51.578;7.306;2023-04-10T05:18:42;101552.19;;;4.50;77.36
27040;BME280;14589;51.578;7.306;2023-04-10T05:21:22;101548.44;;;4.53;77.19
27040;BME280;14589;51.578;7.306;2023-04-10T05:24:15;101537.28;;;4.44;77.82
27040;BME280;14589;51.578;7.306;2023-04-10T05:27:03;101555.84;;;4.49;77.93
27040;BME280;14589;51.578;7.306;2023-04-10T05:29:52;101555.56;;;4.54;77.53
27040;BME280;14589;51.578;7.306;2023-04-10T05:32:40;101551.34;;;4.50;77.71
27040;BME280;14589;51.578;7.306;2023-04-10T05:35:22;101560.94;;;4.54;77.53
27040;BME280;14589;51.578;7.306;2023-04-10T05:38:03;101569.56;;;4.59;77.78
27040;BME280;14589;51.578;7.306;2023-04-10T05:40:44;101563.94;;;4.63;77.57
27040;BME280;14589;51.578;7.306;2023-04-10T05:43:40;101581.41;;;4.70;77.53
27040;BME280;14589;51.578;7.306;2023-04-10T05:46:26;101578.66;;;4.72;77.38
27040;BME280;14589;51.578;7.306;2023-04-10T05:49:15;101575.00;;;4.73;77.60
27040;BME280;14589;51.578;7.306;2023-04-10T05:52:15;101567.81;;;4.73;78.12
27040;BME280;14589;51.578;7.306;2023-04-10T05:55:04;101567.72;;;4.75;77.71
27040;BME280;14589;51.578;7.306;2023-04-10T05:57:55;101563.47;;;4.71;78.26
27040;BME280;14589;51.578;7.306;2023-04-10T06:00:53;101571.59;;;4.85;78.53
27040;BME280;14589;51.578;7.306;2023-04-10T06:03:43;101554.59;;;4.84;77.93
27040;BME280;14589;51.578;7.306;2023-04-10T06:06:15;101561.25;;;4.93;77.59
27040;BME280;14589;51.578;7.306;2023-04-10T06:08:46;101556.09;;;5.04;77.83
27040;BME280;14589;51.578;7.306;2023-04-10T06:11:17;101561.75;;;5.14;77.38
27040;BME280;14589;51.578;7.306;2023-04-10T06:13:53;101563.53;;;5.29;76.85
27040;BME280;14589;51.578;7.306;2023-04-10T06:16:29;101556.03;;;5.34;76.75
27040;BME280;14589;51.578;7.306;2023-04-10T06:18:59;101540.38;;;5.41;76.85
27040;BME280;14589;51.578;7.306;2023-04-10T06:21:30;101553.25;;;5.64;76.77
27040;BME280;14589;51.578;7.306;2023-04-10T06:24:00;101555.94;;;5.78;76.78
27040;BME280;14589;51.578;7.306;2023-04-10T06:26:31;101548.13;;;6.02;76.69
27040;BME280;14589;51.578;7.306;2023-04-10T06:29:01;101544.16;;;6.22;76.08
27040;BME280;14589;51.578;7.306;2023-04-10T06:31:34;101540.69;;;6.46;75.19
27040;BME280;14589;51.578;7.306;2023-04-10T06:34:07;101538.38;;;6.80;73.18
27040;BME280;14589;51.578;7.306;2023-04-10T06:40:00;101529.72;;;7.52;69.16
27040;BME280;14589;51.578;7.306;2023-04-10T06:42:31;101537.19;;;7.85;68.65
27040;BME280;14589;51.578;7.306;2023-04-10T06:45:09;101522.84;;;8.08;67.54
27040;BME280;14589;51.578;7.306;2023-04-10T06:47:40;101519.47;;;8.30;66.06
27040;BME280;14589;51.578;7.306;2023-04-10T06:50:10;101518.06;;;8.48;66.19
27040;BME280;14589;51.578;7.306;2023-04-10T06:52:40;101522.84;;;8.69;64.11
27040;BME280;14589;51.578;7.306;2023-04-10T06:55:11;101510.09;;;8.82;64.46
27040;BME280;14589;51.578;7.306;2023-04-10T06:57:44;101524.16;;;8.98;62.65
27040;BME280;14589;51.578;7.306;2023-04-10T07:00:15;101524.69;;;9.14;62.69
27040;BME280;14589;51.578;7.306;2023-04-10T07:02:46;101528.78;;;9.31;62.33
27040;BME280;14589;51.578;7.306;2023-04-10T07:05:19;101517.84;;;9.55;60.18
27040;BME280;14589;51.578;7.306;2023-04-10T07:07:50;101518.94;;;9.74;60.24
27040;BME280;14589;51.578;7.306;2023-04-10T07:10:20;101530.63;;;9.97;58.67
27040;BME280;14589;51.578;7.306;2023-04-10T07:12:50;101511.50;;;10.21;58.38
27040;BME280;14589;51.578;7.306;2023-04-10T07:15:21;101515.75;;;10.46;55.52
27040;BME280;14589;51.578;7.306;2023-04-10T07:17:51;101517.13;;;10.72;55.41
27040;BME280;14589;51.578;7.306;2023-04-10T07:20:21;101506.13;;;10.94;55.04
27040;BME280;14589;51.578;7.306;2023-04-10T07:22:52;101497.34;;;11.23;53.63
27040;BME280;14589;51.578;7.306;2023-04-10T07:25:22;101485.00;;;11.40;52.38
27040;BME280;14589;51.578;7.306;2023-04-10T07:27:53;101496.19;;;11.77;49.02
27040;BME280;14589;51.578;7.306;2023-04-10T07:30:23;101478.22;;;11.95;49.10
27040;BME280;14589;51.578;7.306;2023-04-10T07:32:53;101478.69;;;12.19;49.05
27040;BME280;14589;51.578;7.306;2023-04-10T07:35:24;101472.72;;;12.44;45.72
27040;BME280;14589;51.578;7.306;2023-04-10T07:37:54;101445.19;;;12.47;44.16
27040;BME280;14589;51.578;7.306;2023-04-10T07:40:25;101449.63;;;12.68;43.22
27040;BME280;14589;51.578;7.306;2023-04-10T07:42:55;101463.94;;;12.79;42.35
27040;BME280;14589;51.578;7.306;2023-04-10T07:45:26;101460.38;;;12.88;41.47
27040;BME280;14589;51.578;7.306;2023-04-10T07:47:57;101450.44;;;12.97;41.67
27040;BME280;14589;51.578;7.306;2023-04-10T07:50:28;101446.53;;;13.09;41.75
27040;BME280;14589;51.578;7.306;2023-04-10T07:52:59;101442.81;;;13.10;40.77
27040;BME280;14589;51.578;7.306;2023-04-10T07:55:40;101443.09;;;13.26;40.11
27040;BME280;14589;51.578;7.306;2023-04-10T07:58:11;101428.72;;;13.34;39.72
27040;BME280;14589;51.578;7.306;2023-04-10T08:00:41;101436.72;;;13.45;38.53
27040;BME280;14589;51.578;7.306;2023-04-10T08:03:13;101429.25;;;13.47;38.39
27040;BME280;14589;51.578;7.306;2023-04-10T08:05:44;101425.75;;;13.55;38.80
27040;BME280;14589;51.578;7.306;2023-04-10T08:08:15;101433.81;;;13.56;38.90
27040;BME280;14589;51.578;7.306;2023-04-10T08:10:45;101420.31;;;13.82;37.55
27040;BME280;14589;51.578;7.306;2023-04-10T08:13:16;101411.09;;;13.83;37.54
27040;BME280;14589;51.578;7.306;2023-04-10T08:15:46;101419.38;;;13.91;37.93
27040;BME280;14589;51.578;7.306;2023-04-10T08:18:16;101400.69;;;13.96;37.50
27040;BME280;14589;51.578;7.306;2023-04-10T08:20:47;101392.25;;;13.90;37.48
27040;BME280;14589;51.578;7.306;2023-04-10T08:23:17;101395.00;;;14.07;37.44
27040;BME280;14589;51.578;7.306;2023-04-10T08:25:48;101388.38;;;14.28;35.64
27040;BME280;14589;51.578;7.306;2023-04-10T08:28:18;101391.34;;;14.52;35.73
27040;BME280;14589;51.578;7.306;2023-04-10T08:30:52;101380.25;;;14.71;36.34
27040;BME280;14589;51.578;7.306;2023-04-10T08:33:22;101380.25;;;14.97;35.42
27040;BME280;14589;51.578;7.306;2023-04-10T08:35:53;101377.75;;;15.04;34.23
27040;BME280;14589;51.578;7.306;2023-04-10T08:38:23;101386.84;;;15.46;34.02
27040;BME280;14589;51.578;7.306;2023-04-10T08:40:57;101372.91;;;15.57;34.17
27040;BME280;14589;51.578;7.306;2023-04-10T08:43:27;101368.50;;;15.72;33.03
27040;BME280;14589;51.578;7.306;2023-04-10T08:45:58;101359.31;;;15.90;32.06
27040;BME280;14589;51.578;7.306;2023-04-10T08:48:38;101359.34;;;16.06;32.12
27040;BME280;14589;51.578;7.306;2023-04-10T08:51:13;101356.78;;;16.21;32.95
27040;BME280;14589;51.578;7.306;2023-04-10T08:53:44;101348.06;;;16.33;33.10
27040;BME280;14589;51.578;7.306;2023-04-10T08:56:17;101350.31;;;16.54;31.06
27040;BME280;14589;51.578;7.306;2023-04-10T08:58:50;101346.34;;;16.48;31.09
27040;BME280;14589;51.578;7.306;2023-04-10T09:01:21;101328.56;;;16.52;30.71
27040;BME280;14589;51.578;7.306;2023-04-10T09:03:52;101338.50;;;16.70;31.06
27040;BME280;14589;51.578;7.306;2023-04-10T09:06:22;101331.28;;;16.85;31.58
27040;BME280;14589;51.578;7.306;2023-04-10T09:08:53;101317.59;;;16.85;30.15
27040;BME280;14589;51.578;7.306;2023-04-10T09:11:23;101321.50;;;16.90;30.30
27040;BME280;14589;51.578;7.306;2023-04-10T09:13:54;101328.16;;;16.96;29.76
27040;BME280;14589;51.578;7.306;2023-04-10T09:16:27;101313.22;;;17.07;29.41
27040;BME280;14589;51.578;7.306;2023-04-10T09:18:58;101315.50;;;16.95;29.92
27040;BME280;14589;51.578;7.306;2023-04-10T09:21:31;101317.00;;;16.97;28.81
27040;BME280;14589;51.578;7.306;2023-04-10T09:24:02;101299.69;;;17.05;28.73
27040;BME280;14589;51.578;7.306;2023-04-10T09:26:32;101313.53;;;17.12;29.42
27040;BME280;14589;51.578;7.306;2023-04-10T09:29:05;101289.53;;;17.22;29.22
27040;BME280;14589;51.578;7.306;2023-04-10T09:31:37;101308.78;;;17.45;28.50
27040;BME280;14589;51.578;7.306;2023-04-10T09:34:17;101307.56;;;17.47;28.70
27040;BME280;14589;51.578;7.306;2023-04-10T09:36:54;101306.28;;;17.66;27.95
27040;BME280;14589;51.578;7.306;2023-04-10T09:39:35;101295.84;;;17.61;27.74
27040;BME280;14589;51.578;7.306;2023-04-10T09:42:06;101306.06;;;17.75;26.51
27040;BME280;14589;51.578;7.306;2023-04-10T09:44:38;101298.88;;;17.97;26.99
27040;BME280;14589;51.578;7.306;2023-04-10T09:47:20;101298.94;;;17.89;26.62
27040;BME280;14589;51.578;7.306;2023-04-10T09:49:56;101295.53;;;17.87;27.23
27040;BME280;14589;51.578;7.306;2023-04-10T09:52:31;101304.69;;;17.71;27.48
27040;BME280;14589;51.578;7.306;2023-04-10T09:55:04;101289.66;;;17.90;27.71
27040;BME280;14589;51.578;7.306;2023-04-10T09:57:35;101296.25;;;18.04;28.23
27040;BME280;14589;51.578;7.306;2023-04-10T10:00:06;101284.84;;;17.92;27.35
27040;BME280;14589;51.578;7.306;2023-04-10T10:02:38;101260.66;;;17.96;27.34
27040;BME280;14589;51.578;7.306;2023-04-10T10:05:10;101269.41;;;17.91;27.25
27040;BME280;14589;51.578;7.306;2023-04-10T10:07:40;101259.22;;;18.00;28.21
27040;BME280;14589;51.578;7.306;2023-04-10T10:10:11;101282.53;;;17.81;27.75
27040;BME280;14589;51.578;7.306;2023-04-10T10:12:50;101266.56;;;18.07;28.36
27040;BME280;14589;51.578;7.306;2023-04-10T10:15:35;101255.41;;;18.24;27.71
27040;BME280;14589;51.578;7.306;2023-04-10T10:18:16;101261.47;;;18.34;26.84
27040;BME280;14589;51.578;7.306;2023-04-10T10:20:50;101257.16;;;18.54;27.03
27040;BME280;14589;51.578;7.306;2023-04-10T10:23:20;101254.94;;;18.72;26.62
27040;BME280;14589;51.578;7.306;2023-04-10T10:25:53;101256.00;;;18.86;26.36
27040;BME280;14589;51.578;7.306;2023-04-10T10:28:24;101254.78;;;18.88;26.19
27040;BME280;14589;51.578;7.306;2023-04-10T10:30:57;101231.53;;;18.91;26.18
27040;BME280;14589;51.578;7.306;2023-04-10T10:33:28;101228.22;;;18.81;25.76
27040;BME280;14589;51.578;7.306;2023-04-10T10:35:59;101224.22;;;18.83;26.03
27040;BME280;14589;51.578;7.306;2023-04-10T10:38:30;101222.53;;;18.68;25.92
27040;BME280;14589;51.578;7.306;2023-04-10T10:41:09;101216.44;;;18.43;25.81
27040;BME280;14589;51.578;7.306;2023-04-10T10:43:58;101205.56;;;18.49;26.06
27040;BME280;14589;51.578;7.306;2023-04-10T10:46:38;101206.34;;;18.73;26.60
27040;BME280;14589;51.578;7.306;2023-04-10T10:49:10;101197.13;;;18.51;25.95
27040;BME280;14589;51.578;7.306;2023-04-10T10:51:46;101193.22;;;18.89;26.55
27040;BME280;14589;51.578;7.306;2023-04-10T10:54:33;101199.72;;;18.67;25.24
27040;BME280;14589;51.578;7.306;2023-04-10T11:00:14;101182.19;;;18.68;26.06
27040;BME280;14589;51.578;7.306;2023-04-10T11:13:42;101139.00;;;18.98;26.21
27040;BME280;14589;51.578;7.306;2023-04-10T11:19:04;101147.31;;;19.19;24.81
27040;BME280;14589;51.578;7.306;2023-04-10T11:22:02;101128.22;;;19.54;25.45
27040;BME280;14589;51.578;7.306;2023-04-10T11:24:55;101122.72;;;19.54;25.00
27040;BME280;14589;51.578;7.306;2023-04-10T11:27:46;101109.69;;;19.69;25.19
27040;BME280;14589;51.578;7.306;2023-04-10T11:30:31;101106.84;;;19.34;25.24
27040;BME280;14589;51.578;7.306;2023-04-10T11:33:03;101113.41;;;19.83;24.79
27040;BME280;14589;51.578;7.306;2023-04-10T11:35:34;101091.81;;;19.79;24.41
27040;BME280;14589;51.578;7.306;2023-04-10T11:38:12;101080.50;;;19.96;24.77
27040;BME280;14589;51.578;7.306;2023-04-10T11:40:53;101091.56;;;19.74;24.81
27040;BME280;14589;51.578;7.306;2023-04-10T11:43:23;101076.78;;;20.10;25.19
27040;BME280;14589;51.578;7.306;2023-04-10T11:46:00;101079.09;;;20.13;24.70
27040;BME280;14589;51.578;7.306;2023-04-10T11:48:32;101066.88;;;20.22;24.08
27040;BME280;14589;51.578;7.306;2023-04-10T11:51:07;101067.84;;;20.36;24.08
27040;BME280;14589;51.578;7.306;2023-04-10T11:53:39;101070.16;;;20.32;23.73
27040;BME280;14589;51.578;7.306;2023-04-10T11:56:15;101054.63;;;20.31;24.32
27040;BME280;14589;51.578;7.306;2023-04-10T11:58:48;101065.84;;;20.23;24.15
27040;BME280;14589;51.578;7.306;2023-04-10T12:01:20;101057.59;;;20.23;24.41
27040;BME280;14589;51.578;7.306;2023-04-10T12:03:51;101046.78;;;20.28;24.46
27040;BME280;14589;51.578;7.306;2023-04-10T12:06:21;101042.06;;;20.56;24.75
27040;BME280;14589;51.578;7.306;2023-04-10T12:08:52;101041.03;;;20.64;24.51
27040;BME280;14589;51.578;7.306;2023-04-10T12:11:24;101049.53;;;20.69;24.18
27040;BME280;14589;51.578;7.306;2023-04-10T12:13:56;101035.09;;;20.61;23.71
27040;BME280;14589;51.578;7.306;2023-04-10T12:16:26;101039.66;;;20.34;23.72
27040;BME280;14589;51.578;7.306;2023-04-10T12:18:57;101021.97;;;20.76;24.30
27040;BME280;14589;51.578;7.306;2023-04-10T12:21:28;101017.41;;;21.09;24.04
27040;BME280;14589;51.578;7.306;2023-04-10T12:23:58;101012.78;;;21.16;23.38
27040;BME280;14589;51.578;7.306;2023-04-10T12:26:29;101012.13;;;21.21;23.37
27040;BME280;14589;51.578;7.306;2023-04-10T12:28:59;101011.00;;;21.02;23.21
27040;BME280;14589;51.578;7.306;2023-04-10T12:31:32;101006.81;;;21.32;23.59
27040;BME280;14589;51.578;7.306;2023-04-10T12:34:03;100996.38;;;20.95;23.70
27040;BME280;14589;51.578;7.306;2023-04-10T12:36:34;100990.63;;;20.90;23.66
27040;BME280;14589;51.578;7.306;2023-04-10T12:39:21;100991.69;;;20.82;23.29
27040;BME280;14589;51.578;7.306;2023-04-10T12:41:51;100982.38;;;20.96;23.93
27040;BME280;14589;51.578;7.306;2023-04-10T12:44:22;100973.47;;;21.01;23.28
27040;BME280;14589;51.578;7.306;2023-04-10T12:46:59;100987.91;;;21.03;23.97
27040;BME280;14589;51.578;7.306;2023-04-10T12:49:30;100979.03;;;21.34;23.28
27040;BME280;14589;51.578;7.306;2023-04-10T12:52:00;100966.50;;;21.38;22.91
27040;BME280;14589;51.578;7.306;2023-04-10T12:54:35;100956.50;;;21.30;22.90
27040;BME280;14589;51.578;7.306;2023-04-10T12:57:06;100948.59;;;21.60;22.41
27040;BME280;14589;51.578;7.306;2023-04-10T12:59:36;100949.38;;;22.00;22.97
27040;BME280;14589;51.578;7.306;2023-04-10T13:02:08;100950.63;;;22.49;22.95
27040;BME280;14589;51.578;7.306;2023-04-10T13:04:38;100938.06;;;22.22;22.00
27040;BME280;14589;51.578;7.306;2023-04-10T13:07:09;100942.44;;;22.67;21.44
27040;BME280;14589;51.578;7.306;2023-04-10T13:09:39;100935.69;;;22.94;20.84
27040;BME280;14589;51.578;7.306;2023-04-10T13:12:10;100932.63;;;23.03;20.27
27040;BME280;14589;51.578;7.306;2023-04-10T13:14:40;100913.25;;;23.27;20.07
27040;BME280;14589;51.578;7.306;2023-04-10T13:17:11;100907.28;;;22.81;20.22
27040;BME280;14589;51.578;7.306;2023-04-10T13:19:41;100902.72;;;22.24;20.46
27040;BME280;14589;51.578;7.306;2023-04-10T13:22:12;100906.13;;;22.26;20.64
27040;BME280;14589;51.578;7.306;2023-04-10T13:24:42;100898.59;;;22.08;20.64
27040;BME280;14589;51.578;7.306;2023-04-10T13:27:13;100893.03;;;22.14;21.00
27040;BME280;14589;51.578;7.306;2023-04-10T13:29:43;100892.41;;;21.42;20.49
27040;BME280;14589;51.578;7.306;2023-04-10T13:32:14;100884.56;;;21.12;21.09
27040;BME280;14589;51.578;7.306;2023-04-10T13:34:44;100890.94;;;21.13;21.32
27040;BME280;14589;51.578;7.306;2023-04-10T13:37:15;100880.97;;;21.05;20.66
27040;BME280;14589;51.578;7.306;2023-04-10T13:39:45;100883.50;;;20.54;21.41
27040;BME280;14589;51.578;7.306;2023-04-10T13:42:15;100876.31;;;20.66;21.44
27040;BME280;14589;51.578;7.306;2023-04-10T13:44:46;100866.56;;;20.70;21.22
27040;BME280;14589;51.578;7.306;2023-04-10T13:47:16;100858.28;;;20.83;21.83
27040;BME280;14589;51.578;7.306;2023-04-10T13:49:46;100844.50;;;20.83;21.62
27040;BME280;14589;51.578;7.306;2023-04-10T13:52:17;100840.91;;;20.70;21.31
27040;BME280;14589;51.578;7.306;2023-04-10T13:54:47;100835.19;;;20.71;21.65
27040;BME280;14589;51.578;7.306;2023-04-10T13:57:17;100827.56;;;20.67;21.67
27040;BME280;14589;51.578;7.306;2023-04-10T13:59:48;100831.56;;;20.71;21.25
27040;BME280;14589;51.578;7.306;2023-04-10T14:02:18;100829.66;;;20.51;21.11
27040;BME280;14589;51.578;7.306;2023-04-10T14:04:48;100850.38;;;20.28;21.19
27040;BME280;14589;51.578;7.306;2023-04-10T14:07:20;100819.00;;;20.22;21.96
27040;BME280;14589;51.578;7.306;2023-04-10T14:09:50;100806.47;;;19.93;22.05
27040;BME280;14589;51.578;7.306;2023-04-10T14:12:21;100816.91;;;20.24;22.73
27040;BME280;14589;51.578;7.306;2023-04-10T14:14:52;100809.75;;;20.36;22.54
27040;BME280;14589;51.578;7.306;2023-04-10T14:17:22;100803.78;;;20.33;22.95
27040;BME280;14589;51.578;7.306;2023-04-10T14:19:53;100794.00;;;20.10;23.11
27040;BME280;14589;51.578;7.306;2023-04-10T14:22:23;100783.84;;;20.11;22.85
27040;BME280;14589;51.578;7.306;2023-04-10T14:24:53;100790.72;;;19.67;23.41
27040;BME280;14589;51.578;7.306;2023-04-10T14:27:24;100772.53;;;19.79;23.71
27040;BME280;14589;51.578;7.306;2023-04-10T14:29:54;100767.25;;;19.78;23.64
27040;BME280;14589;51.578;7.306;2023-04-10T14:32:25;100760.19;;;19.56;23.97
27040;BME280;14589;51.578;7.306;2023-04-10T14:34:55;100752.38;;;19.59;24.42
27040;BME280;14589;51.578;7.306;2023-04-10T14:37:25;100754.63;;;19.43;24.63
27040;BME280;14589;51.578;7.306;2023-04-10T14:39:56;100742.34;;;19.45;24.84
27040;BME280;14589;51.578;7.306;2023-04-10T14:42:26;100740.34;;;19.26;25.04
27040;BME280;14589;51.578;7.306;2023-04-10T14:44:56;100736.31;;;19.22;25.32
27040;BME280;14589;51.578;7.306;2023-04-10T14:47:28;100745.00;;;19.19;25.54
27040;BME280;14589;51.578;7.306;2023-04-10T14:49:58;100711.59;;;19.22;25.80
27040;BME280;14589;51.578;7.306;2023-04-10T14:52:28;100720.47;;;19.17;25.69
27040;BME280;14589;51.578;7.306;2023-04-10T14:55:00;100714.94;;;19.11;26.16
27040;BME280;14589;51.578;7.306;2023-04-10T14:57:31;100715.81;;;19.18;26.84
27040;BME280;14589;51.578;7.306;2023-04-10T15:00:05;100721.28;;;19.11;26.72
27040;BME280;14589;51.578;7.306;2023-04-10T15:02:38;100715.91;;;18.96;26.48
27040;BME280;14589;51.578;7.306;2023-04-10T15:05:08;100702.13;;;18.90;27.07
27040;BME280;14589;51.578;7.306;2023-04-10T15:07:40;100700.84;;;18.86;27.39
27040;BME280;14589;51.578;7.306;2023-04-10T15:10:13;100705.06;;;18.82;27.48
27040;BME280;14589;51.578;7.306;2023-04-10T15:12:43;100706.06;;;18.74;27.57
27040;BME280;14589;51.578;7.306;2023-04-10T15:15:14;100701.78;;;18.65;28.26
27040;BME280;14589;51.578;7.306;2023-04-10T15:17:45;100697.63;;;18.48;28.02
27040;BME280;14589;51.578;7.306;2023-04-10T15:20:15;100707.66;;;18.34;28.38
27040;BME280;14589;51.578;7.306;2023-04-10T15:22:46;100710.16;;;18.29;28.63
27040;BME280;14589;51.578;7.306;2023-04-10T15:25:17;100698.75;;;18.26;28.62
27040;BME280;14589;51.578;7.306;2023-04-10T15:27:48;100685.50;;;18.08;28.99
27040;BME280;14589;51.578;7.306;2023-04-10T15:30:19;100675.78;;;18.05;28.93
27040;BME280;14589;51.578;7.306;2023-04-10T15:32:49;100687.91;;;17.96;29.22
27040;BME280;14589;51.578;7.306;2023-04-10T15:35:20;100679.44;;;17.91;29.58
27040;BME280;14589;51.578;7.306;2023-04-10T15:37:51;100665.09;;;17.89;29.90
27040;BME280;14589;51.578;7.306;2023-04-10T15:40:21;100668.09;;;17.94;30.09
27040;BME280;14589;51.578;7.306;2023-04-10T15:42:52;100654.91;;;17.83;30.01
27040;BME280;14589;51.578;7.306;2023-04-10T15:45:22;100646.94;;;17.88;29.97
27040;BME280;14589;51.578;7.306;2023-04-10T15:47:52;100644.81;;;17.90;30.26
27040;BME280;14589;51.578;7.306;2023-04-10T15:50:23;100632.28;;;17.81;30.39
27040;BME280;14589;51.578;7.306;2023-04-10T15:52:53;100645.22;;;17.87;30.47
27040;BME280;14589;51.578;7.306;2023-04-10T15:55:23;100638.63;;;17.82;30.61
27040;BME280;14589;51.578;7.306;2023-04-10T15:57:54;100625.53;;;17.77;30.74
27040;BME280;14589;51.578;7.306;2023-04-10T16:00:24;100634.63;;;17.84;30.76
27040;BME280;14589;51.578;7.306;2023-04-10T16:02:55;100610.09;;;17.76;31.21
27040;BME280;14589;51.578;7.306;2023-04-10T16:05:26;100613.03;;;17.74;30.87
27040;BME280;14589;51.578;7.306;2023-04-10T16:07:56;100612.84;;;17.76;30.71
27040;BME280;14589;51.578;7.306;2023-04-10T16:10:27;100606.31;;;17.77;30.83
27040;BME280;14589;51.578;7.306;2023-04-10T16:12:57;100599.38;;;17.81;31.46
27040;BME280;14589;51.578;7.306;2023-04-10T16:15:34;100606.63;;;17.89;31.07
27040;BME280;14589;51.578;7.306;2023-04-10T16:18:05;100593.34;;;17.92;31.26
27040;BME280;14589;51.578;7.306;2023-04-10T16:20:36;100590.59;;;17.92;31.08
27040;BME280;14589;51.578;7.306;2023-04-10T16:23:09;100591.69;;;17.98;31.35
27040;BME280;14589;51.578;7.306;2023-04-10T16:25:40;100595.53;;;18.03;31.23
27040;BME280;14589;51.578;7.306;2023-04-10T16:28:10;100596.56;;;18.02;31.24
27040;BME280;14589;51.578;7.306;2023-04-10T16:30:41;100584.13;;;18.00;31.15
27040;BME280;14589;51.578;7.306;2023-04-10T16:33:11;100585.19;;;18.05;31.22
27040;BME280;14589;51.578;7.306;2023-04-10T16:35:41;100581.81;;;18.03;31.50
27040;BME280;14589;51.578;7.306;2023-04-10T16:38:12;100574.38;;;17.97;31.20
27040;BME280;14589;51.578;7.306;2023-04-10T16:40:42;100583.88;;;17.95;30.85
27040;BME280;14589;51.578;7.306;2023-04-10T16:43:15;100580.66;;;17.91;30.44
27040;BME280;14589;51.578;7.306;2023-04-10T16:45:53;100579.56;;;17.86;30.12
27040;BME280;14589;51.578;7.306;2023-04-10T16:48:24;100568.16;;;17.82;29.93
27040;BME280;14589;51.578;7.306;2023-04-10T16:50:54;100581.03;;;17.82;30.46
27040;BME280;14589;51.578;7.306;2023-04-10T16:53:25;100560.81;;;17.61;30.20
27040;BME280;14589;51.578;7.306;2023-04-10T16:55:56;100566.97;;;17.63;30.92
27040;BME280;14589;51.578;7.306;2023-04-10T16:58:27;100561.19;;;17.58;30.99
27040;BME280;14589;51.578;7.306;2023-04-10T17:00:58;100556.69;;;17.51;31.23
27040;BME280;14589;51.578;7.306;2023-04-10T17:03:28;100565.47;;;17.39;32.15
27040;BME280;14589;51.578;7.306;2023-04-10T17:05:58;100545.59;;;17.37;32.73
27040;BME280;14589;51.578;7.306;2023-04-10T17:08:29;100547.25;;;17.32;33.11
27040;BME280;14589;51.578;7.306;2023-04-10T17:10:59;100564.91;;;17.29;33.44
27040;BME280;14589;51.578;7.306;2023-04-10T17:13:30;100549.00;;;17.18;34.82
27040;BME280;14589;51.578;7.306;2023-04-10T17:16:01;100540.34;;;17.15;35.16
27040;BME280;14589;51.578;7.306;2023-04-10T17:18:31;100522.50;;;17.04;36.97
27040;BME280;14589;51.578;7.306;2023-04-10T17:21:02;100529.25;;;17.02;37.45
27040;BME280;14589;51.578;7.306;2023-04-10T17:23:32;100518.94;;;16.82;38.29
27040;BME280;14589;51.578;7.306;2023-04-10T17:26:03;100485.47;;;16.66;40.93
27040;BME280;14589;51.578;7.306;2023-04-10T17:28:34;100478.38;;;16.35;42.17
27040;BME280;14589;51.578;7.306;2023-04-10T17:31:05;100491.31;;;16.27;45.13
27040;BME280;14589;51.578;7.306;2023-04-10T17:33:35;100488.38;;;16.13;43.93
27040;BME280;14589;51.578;7.306;2023-04-10T17:36:07;100471.34;;;15.97;44.75
27040;BME280;14589;51.578;7.306;2023-04-10T17:38:38;100466.44;;;15.77;45.47
27040;BME280;14589;51.578;7.306;2023-04-10T17:41:09;100478.72;;;15.67;48.25
27040;BME280;14589;51.578;7.306;2023-04-10T17:43:42;100487.16;;;15.57;49.13
27040;BME280;14589;51.578;7.306;2023-04-10T17:46:14;100484.19;;;15.44;48.72
27040;BME280;14589;51.578;7.306;2023-04-10T17:48:44;100483.53;;;15.27;48.36
27040;BME280;14589;51.578;7.306;2023-04-10T17:51:15;100490.56;;;15.22;50.44
27040;BME280;14589;51.578;7.306;2023-04-10T17:53:45;100494.41;;;15.13;50.97
27040;BME280;14589;51.578;7.306;2023-04-10T17:56:16;100497.41;;;15.03;51.44
27040;BME280;14589;51.578;7.306;2023-04-10T17:58:51;100474.97;;;14.93;52.85
27040;BME280;14589;51.578;7.306;2023-04-10T18:01:22;100486.72;;;14.93;51.80
27040;BME280;14589;51.578;7.306;2023-04-10T18:03:54;100478.94;;;14.82;54.24
27040;BME280;14589;51.578;7.306;2023-04-10T18:06:24;100494.84;;;14.79;53.53
27040;BME280;14589;51.578;7.306;2023-04-10T18:08:55;100502.75;;;14.74;53.63
27040;BME280;14589;51.578;7.306;2023-04-10T18:11:26;100489.31;;;14.64;54.36
27040;BME280;14589;51.578;7.306;2023-04-10T18:13:57;100496.34;;;14.58;54.97
27040;BME280;14589;51.578;7.306;2023-04-10T18:16:28;100499.97;;;14.51;55.90
27040;BME280;14589;51.578;7.306;2023-04-10T18:19:00;100527.97;;;14.45;55.92
27040;BME280;14589;51.578;7.306;2023-04-10T18:21:31;100529.38;;;14.41;56.84
27040;BME280;14589;51.578;7.306;2023-04-10T18:24:04;100524.28;;;14.30;58.00
27040;BME280;14589;51.578;7.306;2023-04-10T18:26:34;100520.25;;;14.17;59.30
27040;BME280;14589;51.578;7.306;2023-04-10T18:29:05;100517.56;;;14.01;57.70
27040;BME280;14589;51.578;7.306;2023-04-10T18:31:35;100531.03;;;14.03;59.99
27040;BME280;14589;51.578;7.306;2023-04-10T18:34:05;100532.63;;;13.89;59.45
27040;BME280;14589;51.578;7.306;2023-04-10T18:36:36;100545.22;;;13.90;59.98
27040;BME280;14589;51.578;7.306;2023-04-10T18:39:06;100549.00;;;13.81;60.38
27040;BME280;14589;51.578;7.306;2023-04-10T18:41:40;100536.94;;;13.75;60.78
27040;BME280;14589;51.578;7.306;2023-04-10T18:44:10;100530.31;;;13.70;61.67